Portada
METAR-TAF:

METAR-TAF

Aeroports :

Rota, Illes Mariannes, Estats Units d'Amèrica

latitud: 14-11N, longitud: 145-15E, altitud: 185 m

Observació

L'informe es va fer fa 16 minuts, a les 03:50 UTC
Vent 15 kt del Nord-Est
Temperatura 28°C
Humitat 62%
Pressió 1013 hPa
Visibilitat: 11.3 km
Núvols disperses a una alçada de 1700 ft

METAR: PGRO 200350Z COR 05015KT 7SM SCT017 28/20 A2991

Hora: 14:06 (04:06 UTC)

Pronòstic

L'informe es va fer fa 4 hores i 41 minuts, a les 23:25 UTC
Pronòstic vàlid del 20 a les 00 UTC al 20 a les 24 UTC
Vent 13 kt del Est/Nord-Est amb ràfegues de 23 kt
Visibilitat: 10 km
Escasses núvols a una alçada de 2500 ft
Núvols disperses a una alçada de 5000 ft
A partir de les 20 a les 0900 UTC
Vent 10 kt del Est/Nord-Est
Visibilitat: 10 km
Núvols disperses a una alçada de 2500 ft
Núvols disperses a una alçada de 5000 ft
xàfecs en les proximitats

TAF: PGRO 192325Z 2000/2024 06013G23KT P6SM FEW025 SCT050 FM200900 07010KT P6SM VCSH SCT025 SCT050

Observacions i pronòstics meteorològics de més de 4000 aeroports (METAR i TAF).

Les estacions disponibles són els punts grocs i vermells al mapa.

Posi el ratolí al punt desitjat per veure el nom de l'estació.

Feu clic per veure les observacions i els pronòstics meteorològics.

Per canviar el mapa: feu clic els botons verds amb una creu de color negre per apropar; al botó verd amb un guió per allunyar la imatge; o en les fletxes verdes per a mapes adjacents.


METAR-TAF: